Ms Folla 2 — LLPD — position and weather

sailwx.info

Track history (hours):
 
Tides and Currents Weather Stations Pressure Air Temp Water Temp Dewpoint Dewpoint Depression Visibility Wind Speed Wind Dir Waves Ship Positions

Ms Folla 2

Last reported at 2016-May-24 08:15 UTC. Time now 2016-May-24 11:53 UTC.
Position N 66°04' E 012°38'.

Length 52 m; draft 5.5 m.

Type: Ship. MMSI: 258253000.

Date/timePositionNaut miles runAvg speedWind from/ knotsBaromVisibWave heightAir tempDewpointWater temp
2016-May-24 08:15N 66°04' E 012°38'810.7
2016-May-24 07:29N 66°12' E 012°42'16 5.3
2016-May-24 04:33N 66°26' E 012°59'2410.5
2016-May-24 02:13N 66°50' E 013°16'710.4
2016-May-24 01:33N 66°54' E 013°28'9 9.5
2016-May-24 00:33N 67°01' E 013°44'1010.3
2016-May-23 23:33N 67°09' E 014°02'1110.7
2016-May-23 22:33N 67°20' E 014°07'5 4.7
2016-May-23 21:33N 67°23' E 014°15'0 0.0
2016-May-23 20:33N 67°23' E 014°15'0 0.0
2016-May-23 19:33N 67°23' E 014°15'7 6.9
2016-May-23 18:33N 67°17' E 014°23'0 0.4
2016-May-23 17:33N 67°17' E 014°24'0 0.0
2016-May-23 16:33N 67°17' E 014°24'0 0.0
2016-May-23 15:33N 67°17' E 014°24'0 0.3
2016-May-23 14:33N 67°17' E 014°23'1010.0
2016-May-23 13:33N 67°27' E 014°28'1511.4
2016-May-23 12:14N 67°42' E 014°31'10611.0
2016-May-23 02:33N 69°06' E 017°28'1211.9
2016-May-23 01:33N 69°11' E 017°58'6 0.8
2016-May-22 17:31N 69°17' E 017°58'3 3.1
2016-May-22 16:33N 69°14' E 017°58'5 5.1
2016-May-22 15:33N 69°09' E 017°52'1111.0
2016-May-22 14:33N 69°01' E 017°30'135 5.5
2016-May-21 14:03N 67°21' E 013°28'1011.7
2016-May-21 13:12N 67°11' E 013°28'1111.5
2016-May-21 12:13N 66°59' E 013°27'13 7.4
2016-May-21 10:30N 66°47' E 013°19'1011.0
2016-May-21 09:33N 66°39' E 013°02'5 4.7
2016-May-21 08:31N 66°35' E 012°57'1111.4
2016-May-21 07:33N 66°25' E 012°46'4 4.2
2016-May-21 06:33N 66°24' E 012°36'7 7.1
2016-May-21 05:33N 66°19' E 012°23'10 9.8
2016-May-21 04:33N 66°12' E 012°39'61 7.4
2016-May-20 20:15N 65°13' E 011°54'811.6
2016-May-20 19:33N 65°06' E 011°48'1111.0
2016-May-20 18:33N 64°57' E 011°31'9 9.3
2016-May-20 17:33N 64°51' E 011°14'1110.7
2016-May-20 16:33N 64°41' E 011°07'9 1.0
2016-May-20 07:19N 64°34' E 011°20'810.1
2016-May-20 06:33N 64°39' E 011°08'1010.2
2016-May-20 05:33N 64°49' E 011°09'4 3.7
2016-May-20 04:33N 64°51' E 011°17'0 0.0
2016-May-20 03:33N 64°51' E 011°17'0 0.0
2016-May-20 02:33N 64°51' E 011°17'0 0.0
2016-May-20 01:33N 64°51' E 011°17'0 0.0
2016-May-20 00:33N 64°51' E 011°17'0 0.0
2016-May-19 22:04N 64°51' E 011°17'0 0.0
2016-May-19 21:33N 64°51' E 011°17'0 0.0
2016-May-19 20:33N 64°51' E 011°17'0 0.0
2016-May-19 19:33N 64°51' E 011°17'0 0.0
2016-May-19 18:33N 64°51' E 011°17'0 0.0
2016-May-19 17:33N 64°51' E 011°17'0 0.0
2016-May-19 16:33N 64°51' E 011°17'0 0.0
2016-May-19 15:33N 64°51' E 011°17'0 0.0
2016-May-19 14:33N 64°51' E 011°17'0 0.0
2016-May-19 13:33N 64°51' E 011°17'0 0.0
2016-May-19 12:33N 64°51' E 011°17'0 0.4
2016-May-19 11:33N 64°52' E 011°16'4 4.2
2016-May-19 10:33N 64°48' E 011°10'3 3.1
2016-May-19 09:33N 64°51' E 011°13'1 1.0
2016-May-19 08:33N 64°52' E 011°15'1 1.0
2016-May-19 07:33N 64°51' E 011°17'0 0.0
2016-May-19 06:33N 64°51' E 011°17'0 0.0
2016-May-19 05:33N 64°51' E 011°17'0 0.0
2016-May-19 04:33N 64°51' E 011°17'0 0.0
2016-May-19 03:33N 64°51' E 011°17'0 0.0
2016-May-19 02:33N 64°51' E 011°17'0 0.0
2016-May-19 01:33N 64°51' E 011°17'0 0.0
2016-May-19 00:33N 64°51' E 011°17'0 0.0
2016-May-18 23:33N 64°51' E 011°17'0 0.0
2016-May-18 22:33N 64°51' E 011°17'0 0.0
2016-May-18 21:33N 64°51' E 011°17'0 0.0
2016-May-18 20:33N 64°51' E 011°17'0 0.0
2016-May-18 19:33N 64°51' E 011°17'0 0.0
2016-May-18 18:33N 64°51' E 011°17'0 0.0
2016-May-18 17:33N 64°51' E 011°17'0 0.0
2016-May-18 16:33N 64°51' E 011°17'0 0.0
2016-May-18 15:33N 64°51' E 011°17'0 0.0
2016-May-18 14:33N 64°51' E 011°17'0 0.0
2016-May-18 13:33N 64°51' E 011°17'0 0.0
2016-May-18 12:33N 64°51' E 011°17'0 0.0
2016-May-18 11:33N 64°51' E 011°17'0 0.0
2016-May-18 10:33N 64°51' E 011°17'0 0.0
2016-May-18 09:33N 64°51' E 011°17'0 0.0
2016-May-18 08:33N 64°51' E 011°17'0 0.0
2016-May-18 07:33N 64°51' E 011°17'0 0.0
2016-May-18 06:33N 64°51' E 011°17'0 0.0
2016-May-18 05:33N 64°51' E 011°17'0 0.0
2016-May-18 04:33N 64°51' E 011°17'0 0.0
2016-May-18 03:33N 64°51' E 011°17'0 0.0
2016-May-18 02:33N 64°51' E 011°17'0 0.0
2016-May-18 01:33N 64°51' E 011°17'0 0.0
2016-May-18 00:33N 64°51' E 011°17'0 0.0
2016-May-17 23:33N 64°51' E 011°17'0 0.0
2016-May-17 22:33N 64°51' E 011°17'0 0.0
2016-May-17 21:33N 64°51' E 011°17'0 0.0
2016-May-17 20:33N 64°51' E 011°17'0 0.0
2016-May-17 19:33N 64°51' E 011°17'0 0.0
2016-May-17 18:33N 64°51' E 011°17'4 3.7
2016-May-17 17:33N 64°54' E 011°22'1111.0
2016-May-17 16:33N 65°02' E 011°42'1111.3
2016-May-17 15:33N 65°12' E 011°52'4911.1
2016-May-17 11:09N 65°58' E 012°28'910.7
2016-May-17 10:21N 66°05' E 012°41'1910.8
2016-May-17 08:33N 66°23' E 012°58'3110.5
2016-May-17 05:33N 66°53' E 013°23'1010.0
2016-May-17 04:33N 67°00' E 013°40'1110.9
2016-May-17 03:33N 67°08' E 014°01'1110.6
2016-May-17 02:33N 67°16' E 014°18'3 2.9
2016-May-17 01:33N 67°18' E 014°23'1211.5
2016-May-17 00:33N 67°30' E 014°28'1211.1
2016-May-16 23:28N 67°42' E 014°31'108 5.7
2016-May-16 04:33N 69°07' E 017°34'1110.9
2016-May-16 03:33N 69°12' E 018°01'8 0.9
2016-May-15 19:15N 69°19' E 018°01'5 7.7
2016-May-15 18:33N 69°14' E 017°58'1 0.6
2016-May-15 17:33N 69°14' E 017°59'7 7.2
2016-May-15 16:33N 69°08' E 017°46'89 5.8
2016-May-15 01:19N 68°13' E 014°34'1 0.8
2016-May-15 00:28N 68°14' E 014°34'910.0
2016-May-14 23:31N 68°08' E 014°14'51 6.3
2016-May-14 15:24N 67°21' E 013°26'1410.7
2016-May-14 14:05N 67°07' E 013°22'1010.9
2016-May-14 13:11N 66°57' E 013°20'25 9.3
2016-May-14 10:30N 66°33' E 013°03'6 6.0
2016-May-14 09:33N 66°28' E 012°56'5 5.2
2016-May-14 08:33N 66°24' E 012°50'  
Track history (hours):
 
Tides and Currents Weather Stations Pressure Air Temp Water Temp Dewpoint Dewpoint Depression Visibility Wind Speed Wind Dir Waves Ship Positions

Ms Folla 2

Last reported at 2016-May-24 08:15 UTC. Time now 2016-May-24 11:53 UTC.
Position N 66°04' E 012°38'.

Length 52 m; draft 5.5 m.

Type: Ship. MMSI: 258253000.

Date/timePositionNaut miles runAvg speedWind from/ knotsBaromVisibWave heightAir tempDewpointWater temp
2016-May-24 08:15N 66°04' E 012°38'810.7
2016-May-24 07:29N 66°12' E 012°42'16 5.3
2016-May-24 04:33N 66°26' E 012°59'2410.5
2016-May-24 02:13N 66°50' E 013°16'710.4
2016-May-24 01:33N 66°54' E 013°28'9 9.5
2016-May-24 00:33N 67°01' E 013°44'1010.3
2016-May-23 23:33N 67°09' E 014°02'1110.7
2016-May-23 22:33N 67°20' E 014°07'5 4.7
2016-May-23 21:33N 67°23' E 014°15'0 0.0
2016-May-23 20:33N 67°23' E 014°15'0 0.0
2016-May-23 19:33N 67°23' E 014°15'7 6.9
2016-May-23 18:33N 67°17' E 014°23'0 0.4
2016-May-23 17:33N 67°17' E 014°24'0 0.0
2016-May-23 16:33N 67°17' E 014°24'0 0.0
2016-May-23 15:33N 67°17' E 014°24'0 0.3
2016-May-23 14:33N 67°17' E 014°23'1010.0
2016-May-23 13:33N 67°27' E 014°28'1511.4
2016-May-23 12:14N 67°42' E 014°31'10611.0
2016-May-23 02:33N 69°06' E 017°28'1211.9
2016-May-23 01:33N 69°11' E 017°58'6 0.8
2016-May-22 17:31N 69°17' E 017°58'3 3.1
2016-May-22 16:33N 69°14' E 017°58'5 5.1
2016-May-22 15:33N 69°09' E 017°52'1111.0
2016-May-22 14:33N 69°01' E 017°30'135 5.5
2016-May-21 14:03N 67°21' E 013°28'1011.7
2016-May-21 13:12N 67°11' E 013°28'1111.5
2016-May-21 12:13N 66°59' E 013°27'13 7.4
2016-May-21 10:30N 66°47' E 013°19'1011.0
2016-May-21 09:33N 66°39' E 013°02'5 4.7
2016-May-21 08:31N 66°35' E 012°57'1111.4
2016-May-21 07:33N 66°25' E 012°46'4 4.2
2016-May-21 06:33N 66°24' E 012°36'7 7.1
2016-May-21 05:33N 66°19' E 012°23'10 9.8
2016-May-21 04:33N 66°12' E 012°39'61 7.4
2016-May-20 20:15N 65°13' E 011°54'811.6
2016-May-20 19:33N 65°06' E 011°48'1111.0
2016-May-20 18:33N 64°57' E 011°31'9 9.3
2016-May-20 17:33N 64°51' E 011°14'1110.7
2016-May-20 16:33N 64°41' E 011°07'9 1.0
2016-May-20 07:19N 64°34' E 011°20'810.1
2016-May-20 06:33N 64°39' E 011°08'1010.2
2016-May-20 05:33N 64°49' E 011°09'4 3.7
2016-May-20 04:33N 64°51' E 011°17'0 0.0
2016-May-20 03:33N 64°51' E 011°17'0 0.0
2016-May-20 02:33N 64°51' E 011°17'0 0.0
2016-May-20 01:33N 64°51' E 011°17'0 0.0
2016-May-20 00:33N 64°51' E 011°17'0 0.0
2016-May-19 22:04N 64°51' E 011°17'0 0.0
2016-May-19 21:33N 64°51' E 011°17'0 0.0
2016-May-19 20:33N 64°51' E 011°17'0 0.0
2016-May-19 19:33N 64°51' E 011°17'0 0.0
2016-May-19 18:33N 64°51' E 011°17'0 0.0
2016-May-19 17:33N 64°51' E 011°17'0 0.0
2016-May-19 16:33N 64°51' E 011°17'0 0.0
2016-May-19 15:33N 64°51' E 011°17'0 0.0
2016-May-19 14:33N 64°51' E 011°17'0 0.0
2016-May-19 13:33N 64°51' E 011°17'0 0.0
2016-May-19 12:33N 64°51' E 011°17'0 0.4
2016-May-19 11:33N 64°52' E 011°16'4 4.2
2016-May-19 10:33N 64°48' E 011°10'3 3.1
2016-May-19 09:33N 64°51' E 011°13'1 1.0
2016-May-19 08:33N 64°52' E 011°15'1 1.0
2016-May-19 07:33N 64°51' E 011°17'0 0.0
2016-May-19 06:33N 64°51' E 011°17'0 0.0
2016-May-19 05:33N 64°51' E 011°17'0 0.0
2016-May-19 04:33N 64°51' E 011°17'0 0.0
2016-May-19 03:33N 64°51' E 011°17'0 0.0
2016-May-19 02:33N 64°51' E 011°17'0 0.0
2016-May-19 01:33N 64°51' E 011°17'0 0.0
2016-May-19 00:33N 64°51' E 011°17'0 0.0
2016-May-18 23:33N 64°51' E 011°17'0 0.0
2016-May-18 22:33N 64°51' E 011°17'0 0.0
2016-May-18 21:33N 64°51' E 011°17'0 0.0
2016-May-18 20:33N 64°51' E 011°17'0 0.0
2016-May-18 19:33N 64°51' E 011°17'0 0.0
2016-May-18 18:33N 64°51' E 011°17'0 0.0
2016-May-18 17:33N 64°51' E 011°17'0 0.0
2016-May-18 16:33N 64°51' E 011°17'0 0.0
2016-May-18 15:33N 64°51' E 011°17'0 0.0
2016-May-18 14:33N 64°51' E 011°17'0 0.0
2016-May-18 13:33N 64°51' E 011°17'0 0.0
2016-May-18 12:33N 64°51' E 011°17'0 0.0
2016-May-18 11:33N 64°51' E 011°17'0 0.0
2016-May-18 10:33N 64°51' E 011°17'0 0.0
2016-May-18 09:33N 64°51' E 011°17'0 0.0
2016-May-18 08:33N 64°51' E 011°17'0 0.0
2016-May-18 07:33N 64°51' E 011°17'0 0.0
2016-May-18 06:33N 64°51' E 011°17'0 0.0
2016-May-18 05:33N 64°51' E 011°17'0 0.0
2016-May-18 04:33N 64°51' E 011°17'0 0.0
2016-May-18 03:33N 64°51' E 011°17'0 0.0
2016-May-18 02:33N 64°51' E 011°17'0 0.0
2016-May-18 01:33N 64°51' E 011°17'0 0.0
2016-May-18 00:33N 64°51' E 011°17'0 0.0
2016-May-17 23:33N 64°51' E 011°17'0 0.0
2016-May-17 22:33N 64°51' E 011°17'0 0.0
2016-May-17 21:33N 64°51' E 011°17'0 0.0
2016-May-17 20:33N 64°51' E 011°17'0 0.0
2016-May-17 19:33N 64°51' E 011°17'0 0.0
2016-May-17 18:33N 64°51' E 011°17'4 3.7
2016-May-17 17:33N 64°54' E 011°22'1111.0
2016-May-17 16:33N 65°02' E 011°42'1111.3
2016-May-17 15:33N 65°12' E 011°52'4911.1
2016-May-17 11:09N 65°58' E 012°28'910.7
2016-May-17 10:21N 66°05' E 012°41'1910.8
2016-May-17 08:33N 66°23' E 012°58'3110.5
2016-May-17 05:33N 66°53' E 013°23'1010.0
2016-May-17 04:33N 67°00' E 013°40'1110.9
2016-May-17 03:33N 67°08' E 014°01'1110.6
2016-May-17 02:33N 67°16' E 014°18'3 2.9
2016-May-17 01:33N 67°18' E 014°23'1211.5
2016-May-17 00:33N 67°30' E 014°28'1211.1
2016-May-16 23:28N 67°42' E 014°31'108 5.7
2016-May-16 04:33N 69°07' E 017°34'1110.9
2016-May-16 03:33N 69°12' E 018°01'8 0.9
2016-May-15 19:15N 69°19' E 018°01'5 7.7
2016-May-15 18:33N 69°14' E 017°58'1 0.6
2016-May-15 17:33N 69°14' E 017°59'7 7.2
2016-May-15 16:33N 69°08' E 017°46'89 5.8
2016-May-15 01:19N 68°13' E 014°34'1 0.8
2016-May-15 00:28N 68°14' E 014°34'910.0
2016-May-14 23:31N 68°08' E 014°14'51 6.3
2016-May-14 15:24N 67°21' E 013°26'1410.7
2016-May-14 14:05N 67°07' E 013°22'1010.9
2016-May-14 13:11N 66°57' E 013°20'25 9.3
2016-May-14 10:30N 66°33' E 013°03'6 6.0
2016-May-14 09:33N 66°28' E 012°56'5 5.2
2016-May-14 08:33N 66°24' E 012°50'  

Dump ship's entire track history